sensor_id;sensor_type;location;lat;lon;timestamp;pressure;altitude;pressure_sealevel;temperature;humidity
163;BME280;3946;48.958;8.284;2023-12-04T00:01:58;100724.09;;;-4.30;100.00
163;BME280;3946;48.958;8.284;2023-12-04T00:04:43;100720.81;;;-3.75;100.00
163;BME280;3946;48.958;8.284;2023-12-04T00:07:28;100713.16;;;-4.18;100.00
163;BME280;3946;48.958;8.284;2023-12-04T00:10:15;100708.06;;;-4.45;100.00
163;BME280;3946;48.958;8.284;2023-12-04T00:13:00;100704.66;;;-4.53;100.00
163;BME280;3946;48.958;8.284;2023-12-04T00:15:45;100697.88;;;-4.65;100.00
163;BME280;3946;48.958;8.284;2023-12-04T00:18:34;100693.66;;;-4.68;100.00
163;BME280;3946;48.958;8.284;2023-12-04T00:21:20;100688.59;;;-4.74;100.00
163;BME280;3946;48.958;8.284;2023-12-04T00:24:05;100679.31;;;-4.75;100.00
163;BME280;3946;48.958;8.284;2023-12-04T00:26:51;100685.19;;;-4.80;100.00
163;BME280;3946;48.958;8.284;2023-12-04T00:29:36;100673.38;;;-4.90;100.00
163;BME280;3946;48.958;8.284;2023-12-04T00:32:21;100673.38;;;-4.84;100.00
163;BME280;3946;48.958;8.284;2023-12-04T00:35:08;100672.69;;;-4.21;100.00
163;BME280;3946;48.958;8.284;2023-12-04T00:37:54;100670.91;;;-4.66;100.00
163;BME280;3946;48.958;8.284;2023-12-04T00:40:39;100650.63;;;-4.89;100.00
163;BME280;3946;48.958;8.284;2023-12-04T00:43:24;100653.16;;;-4.81;100.00
163;BME280;3946;48.958;8.284;2023-12-04T00:46:10;100644.00;;;-4.56;100.00
163;BME280;3946;48.958;8.284;2023-12-04T00:48:55;100638.94;;;-4.55;100.00
163;BME280;3946;48.958;8.284;2023-12-04T00:51:42;100635.56;;;-4.59;100.00
163;BME280;3946;48.958;8.284;2023-12-04T00:54:27;100628.81;;;-4.50;100.00
163;BME280;3946;48.958;8.284;2023-12-04T00:57:13;100629.69;;;-4.03;100.00
163;BME280;3946;48.958;8.284;2023-12-04T00:59:58;100637.28;;;-4.29;100.00
163;BME280;3946;48.958;8.284;2023-12-04T01:02:43;100631.38;;;-4.41;100.00
163;BME280;3946;48.958;8.284;2023-12-04T01:05:29;100641.44;;;-4.52;100.00
163;BME280;3946;48.958;8.284;2023-12-04T01:08:16;100636.41;;;-4.55;100.00
163;BME280;3946;48.958;8.284;2023-12-04T01:11:01;100631.34;;;-4.53;100.00
163;BME280;3946;48.958;8.284;2023-12-04T01:13:47;100626.28;;;-4.52;100.00
163;BME280;3946;48.958;8.284;2023-12-04T01:16:32;100612.81;;;-4.60;100.00
163;BME280;3946;48.958;8.284;2023-12-04T01:19:17;100623.75;;;-4.53;100.00
163;BME280;3946;48.958;8.284;2023-12-04T01:22:03;100620.41;;;-4.59;100.00
163;BME280;3946;48.958;8.284;2023-12-04T01:24:49;100623.75;;;-4.60;100.00
163;BME280;3946;48.958;8.284;2023-12-04T01:27:35;100620.38;;;-4.51;100.00
163;BME280;3946;48.958;8.284;2023-12-04T01:30:21;100606.91;;;-4.47;100.00
163;BME280;3946;48.958;8.284;2023-12-04T01:33:06;100610.31;;;-4.39;100.00
163;BME280;3946;48.958;8.284;2023-12-04T01:35:52;100614.53;;;-4.30;100.00
163;BME280;3946;48.958;8.284;2023-12-04T01:38:37;100612.00;;;-4.27;100.00
163;BME280;3946;48.958;8.284;2023-12-04T01:41:24;100615.38;;;-4.13;100.00
163;BME280;3946;48.958;8.284;2023-12-04T01:44:09;100601.06;;;-4.08;100.00
163;BME280;3946;48.958;8.284;2023-12-04T01:46:55;100590.91;;;-4.00;100.00
163;BME280;3946;48.958;8.284;2023-12-04T01:49:40;100584.16;;;-3.97;100.00
163;BME280;3946;48.958;8.284;2023-12-04T01:52:26;100585.84;;;-3.87;100.00
163;BME280;3946;48.958;8.284;2023-12-04T01:55:12;100576.44;;;-3.37;100.00
163;BME280;3946;48.958;8.284;2023-12-04T01:57:59;100586.59;;;-3.42;100.00
163;BME280;3946;48.958;8.284;2023-12-04T02:00:45;100580.56;;;-3.17;100.00
163;BME280;3946;48.958;8.284;2023-12-04T02:03:31;100578.03;;;-3.13;100.00
163;BME280;3946;48.958;8.284;2023-12-04T02:06:16;100573.06;;;-3.38;100.00
163;BME280;3946;48.958;8.284;2023-12-04T02:09:04;100579.00;;;-3.54;100.00
163;BME280;3946;48.958;8.284;2023-12-04T02:11:50;100571.47;;;-3.69;100.00
163;BME280;3946;48.958;8.284;2023-12-04T02:14:38;100571.50;;;-3.78;100.00
163;BME280;3946;48.958;8.284;2023-12-04T02:17:24;100573.19;;;-3.88;100.00
163;BME280;3946;48.958;8.284;2023-12-04T02:20:12;100573.16;;;-3.64;100.00
163;BME280;3946;48.958;8.284;2023-12-04T02:22:58;100567.28;;;-3.84;100.00
163;BME280;3946;48.958;8.284;2023-12-04T02:25:45;100571.53;;;-3.92;100.00
163;BME280;3946;48.958;8.284;2023-12-04T02:28:34;100560.56;;;-4.03;100.00
163;BME280;3946;48.958;8.284;2023-12-04T02:31:22;100562.25;;;-4.04;100.00
163;BME280;3946;48.958;8.284;2023-12-04T02:34:10;100553.81;;;-4.01;100.00
163;BME280;3946;48.958;8.284;2023-12-04T02:36:59;100538.63;;;-3.97;100.00
163;BME280;3946;48.958;8.284;2023-12-04T02:39:44;100532.72;;;-3.94;100.00
163;BME280;3946;48.958;8.284;2023-12-04T02:42:31;100521.75;;;-4.04;100.00
163;BME280;3946;48.958;8.284;2023-12-04T02:45:17;100507.38;;;-3.82;100.00
163;BME280;3946;48.958;8.284;2023-12-04T02:48:02;100504.00;;;-3.76;100.00
163;BME280;3946;48.958;8.284;2023-12-04T02:50:48;100493.03;;;-3.74;100.00
163;BME280;3946;48.958;8.284;2023-12-04T02:53:33;100495.56;;;-3.83;100.00
163;BME280;3946;48.958;8.284;2023-12-04T02:56:19;100492.16;;;-3.68;100.00
163;BME280;3946;48.958;8.284;2023-12-04T02:59:05;100483.00;;;-4.07;100.00
163;BME280;3946;48.958;8.284;2023-12-04T03:01:53;100467.78;;;-3.97;100.00
163;BME280;3946;48.958;8.284;2023-12-04T03:04:38;100468.63;;;-3.99;100.00
163;BME280;3946;48.958;8.284;2023-12-04T03:07:24;100464.41;;;-3.97;100.00
163;BME280;3946;48.958;8.284;2023-12-04T03:10:10;100457.59;;;-3.80;100.00
163;BME280;3946;48.958;8.284;2023-12-04T03:12:56;100456.75;;;-3.74;100.00
163;BME280;3946;48.958;8.284;2023-12-04T03:15:42;100450.09;;;-4.04;100.00
163;BME280;3946;48.958;8.284;2023-12-04T03:18:28;100452.63;;;-4.04;100.00
163;BME280;3946;48.958;8.284;2023-12-04T03:21:13;100454.34;;;-4.15;100.00
163;BME280;3946;48.958;8.284;2023-12-04T03:23:58;100447.63;;;-4.24;100.00
163;BME280;3946;48.958;8.284;2023-12-04T03:26:43;100445.09;;;-4.26;100.00
163;BME280;3946;48.958;8.284;2023-12-04T03:29:29;100440.00;;;-4.13;100.00
163;BME280;3946;48.958;8.284;2023-12-04T03:32:15;100455.19;;;-4.15;100.00
163;BME280;3946;48.958;8.284;2023-12-04T03:35:00;100461.03;;;-4.05;100.00
163;BME280;3946;48.958;8.284;2023-12-04T03:37:46;100473.69;;;-4.04;100.00
163;BME280;3946;48.958;8.284;2023-12-04T03:40:33;100471.19;;;-4.17;100.00
163;BME280;3946;48.958;8.284;2023-12-04T03:43:19;100470.34;;;-4.06;100.00
163;BME280;3946;48.958;8.284;2023-12-04T03:46:04;100463.56;;;-4.02;100.00
163;BME280;3946;48.958;8.284;2023-12-04T03:48:50;100474.53;;;-3.94;100.00
163;BME280;3946;48.958;8.284;2023-12-04T03:51:36;100471.16;;;-4.05;100.00
163;BME280;3946;48.958;8.284;2023-12-04T03:54:21;100472.00;;;-4.02;100.00
163;BME280;3946;48.958;8.284;2023-12-04T03:57:06;100466.09;;;-4.04;100.00
163;BME280;3946;48.958;8.284;2023-12-04T03:59:51;100477.91;;;-3.98;100.00
163;BME280;3946;48.958;8.284;2023-12-04T04:02:38;100479.59;;;-4.00;100.00
163;BME280;3946;48.958;8.284;2023-12-04T04:05:25;100484.69;;;-4.06;100.00
163;BME280;3946;48.958;8.284;2023-12-04T04:08:10;100471.16;;;-4.04;100.00
163;BME280;3946;48.958;8.284;2023-12-04T04:10:56;100471.16;;;-4.02;100.00
163;BME280;3946;48.958;8.284;2023-12-04T04:13:41;100456.88;;;-4.08;100.00
163;BME280;3946;48.958;8.284;2023-12-04T04:16:26;100475.41;;;-4.12;100.00
163;BME280;3946;48.958;8.284;2023-12-04T04:19:12;100463.56;;;-4.01;100.00
163;BME280;3946;48.958;8.284;2023-12-04T04:21:58;100458.50;;;-4.02;100.00
163;BME280;3946;48.958;8.284;2023-12-04T04:24:44;100459.34;;;-3.93;100.00
163;BME280;3946;48.958;8.284;2023-12-04T04:27:29;100466.94;;;-4.03;100.00
163;BME280;3946;48.958;8.284;2023-12-04T04:30:15;100467.78;;;-4.00;100.00
163;BME280;3946;48.958;8.284;2023-12-04T04:33:01;100476.22;;;-3.98;100.00
163;BME280;3946;48.958;8.284;2023-12-04T04:35:48;100477.06;;;-3.90;100.00
163;BME280;3946;48.958;8.284;2023-12-04T04:38:35;100463.56;;;-3.99;100.00
163;BME280;3946;48.958;8.284;2023-12-04T04:41:21;100477.06;;;-3.96;100.00
163;BME280;3946;48.958;8.284;2023-12-04T04:44:06;100469.47;;;-3.99;100.00
163;BME280;3946;48.958;8.284;2023-12-04T04:46:52;100460.16;;;-3.83;100.00
163;BME280;3946;48.958;8.284;2023-12-04T04:49:37;100453.41;;;-3.89;100.00
163;BME280;3946;48.958;8.284;2023-12-04T04:52:22;100460.16;;;-3.86;100.00
163;BME280;3946;48.958;8.284;2023-12-04T04:55:09;100448.34;;;-3.87;100.00
163;BME280;3946;48.958;8.284;2023-12-04T04:57:56;100456.81;;;-3.91;100.00
163;BME280;3946;48.958;8.284;2023-12-04T05:00:41;100447.50;;;-3.83;100.00
163;BME280;3946;48.958;8.284;2023-12-04T05:03:27;100440.72;;;-3.76;100.00
163;BME280;3946;48.958;8.284;2023-12-04T05:06:12;100439.88;;;-3.75;100.00
163;BME280;3946;48.958;8.284;2023-12-04T05:08:57;100439.84;;;-3.72;100.00
163;BME280;3946;48.958;8.284;2023-12-04T05:11:44;100443.25;;;-3.79;100.00
163;BME280;3946;48.958;8.284;2023-12-04T05:14:29;100438.22;;;-3.84;100.00
163;BME280;3946;48.958;8.284;2023-12-04T05:17:15;100441.56;;;-3.77;100.00
163;BME280;3946;48.958;8.284;2023-12-04T05:20:00;100435.69;;;-3.82;100.00
163;BME280;3946;48.958;8.284;2023-12-04T05:22:45;100431.47;;;-3.80;100.00
163;BME280;3946;48.958;8.284;2023-12-04T05:25:33;100418.66;;;-3.56;100.00
163;BME280;3946;48.958;8.284;2023-12-04T05:28:19;100412.84;;;-3.72;100.00
163;BME280;3946;48.958;8.284;2023-12-04T05:31:05;100423.81;;;-3.68;100.00
163;BME280;3946;48.958;8.284;2023-12-04T05:33:50;100420.34;;;-3.57;100.00
163;BME280;3946;48.958;8.284;2023-12-04T05:36:36;100399.03;;;-3.22;100.00
163;BME280;3946;48.958;8.284;2023-12-04T05:39:21;100392.16;;;-3.03;100.00
163;BME280;3946;48.958;8.284;2023-12-04T05:42:06;100385.47;;;-3.10;100.00
163;BME280;3946;48.958;8.284;2023-12-04T05:44:53;100385.41;;;-3.07;100.00
163;BME280;3946;48.958;8.284;2023-12-04T05:47:41;100382.84;;;-3.00;100.00
163;BME280;3946;48.958;8.284;2023-12-04T05:50:26;100382.13;;;-3.19;100.00
163;BME280;3946;48.958;8.284;2023-12-04T05:53:12;100375.38;;;-3.18;100.00
163;BME280;3946;48.958;8.284;2023-12-04T05:55:57;100380.59;;;-3.39;100.00
163;BME280;3946;48.958;8.284;2023-12-04T05:58:42;100378.88;;;-3.36;100.00
163;BME280;3946;48.958;8.284;2023-12-04T06:01:29;100377.28;;;-3.50;100.00
163;BME280;3946;48.958;8.284;2023-12-04T06:04:15;100376.50;;;-3.57;100.00
163;BME280;3946;48.958;8.284;2023-12-04T06:07:00;100373.09;;;-3.56;100.00
163;BME280;3946;48.958;8.284;2023-12-04T06:09:45;100367.91;;;-3.33;100.00
163;BME280;3946;48.958;8.284;2023-12-04T06:12:31;100374.72;;;-3.44;100.00
163;BME280;3946;48.958;8.284;2023-12-04T06:15:16;100364.63;;;-3.46;100.00
163;BME280;3946;48.958;8.284;2023-12-04T06:18:03;100359.38;;;-3.23;100.00
163;BME280;3946;48.958;8.284;2023-12-04T06:20:48;100352.53;;;-3.09;100.00
163;BME280;3946;48.958;8.284;2023-12-04T06:23:34;100354.72;;;-2.74;100.00
163;BME280;3946;48.958;8.284;2023-12-04T06:26:20;100343.03;;;-2.90;100.00
163;BME280;3946;48.958;8.284;2023-12-04T06:29:06;100332.03;;;-2.88;100.00
163;BME280;3946;48.958;8.284;2023-12-04T06:31:51;100317.66;;;-2.87;100.00
163;BME280;3946;48.958;8.284;2023-12-04T06:34:39;100318.63;;;-2.99;100.00
163;BME280;3946;48.958;8.284;2023-12-04T06:37:25;100306.00;;;-3.03;100.00
163;BME280;3946;48.958;8.284;2023-12-04T06:40:11;100301.75;;;-3.01;100.00
163;BME280;3946;48.958;8.284;2023-12-04T06:42:57;100285.66;;;-2.96;100.00
163;BME280;3946;48.958;8.284;2023-12-04T06:45:43;100294.16;;;-3.01;100.00
163;BME280;3946;48.958;8.284;2023-12-04T06:48:28;100289.94;;;-3.01;100.00
163;BME280;3946;48.958;8.284;2023-12-04T06:51:15;100283.97;;;-2.95;100.00
163;BME280;3946;48.958;8.284;2023-12-04T06:54:00;100280.69;;;-3.06;100.00
163;BME280;3946;48.958;8.284;2023-12-04T06:56:46;100263.78;;;-3.06;100.00
163;BME280;3946;48.958;8.284;2023-12-04T06:59:31;100275.56;;;-2.99;100.00
163;BME280;3946;48.958;8.284;2023-12-04T07:02:17;100279.63;;;-2.86;100.00
163;BME280;3946;48.958;8.284;2023-12-04T07:05:02;100277.94;;;-2.85;100.00
163;BME280;3946;48.958;8.284;2023-12-04T07:07:49;100275.44;;;-2.90;100.00
163;BME280;3946;48.958;8.284;2023-12-04T07:10:34;100279.63;;;-2.83;100.00
163;BME280;3946;48.958;8.284;2023-12-04T07:13:20;100285.53;;;-2.84;100.00
163;BME280;3946;48.958;8.284;2023-12-04T07:16:06;100293.16;;;-2.85;100.00
163;BME280;3946;48.958;8.284;2023-12-04T07:18:51;100285.34;;;-2.65;100.00
163;BME280;3946;48.958;8.284;2023-12-04T07:21:37;100273.50;;;-2.63;100.00
163;BME280;3946;48.958;8.284;2023-12-04T07:24:24;100285.16;;;-2.50;100.00
163;BME280;3946;48.958;8.284;2023-12-04T07:27:10;100280.94;;;-2.51;100.00
163;BME280;3946;48.958;8.284;2023-12-04T07:29:55;100285.88;;;-2.40;100.00
163;BME280;3946;48.958;8.284;2023-12-04T07:32:41;100280.63;;;-2.27;100.00
163;BME280;3946;48.958;8.284;2023-12-04T07:35:26;100264.84;;;-2.45;100.00
163;BME280;3946;48.958;8.284;2023-12-04T07:38:11;100273.16;;;-2.37;100.00
163;BME280;3946;48.958;8.284;2023-12-04T07:40:58;100270.59;;;-2.33;100.00
163;BME280;3946;48.958;8.284;2023-12-04T07:43:45;100262.16;;;-2.36;100.00
163;BME280;3946;48.958;8.284;2023-12-04T07:46:30;100253.72;;;-2.38;100.00
163;BME280;3946;48.958;8.284;2023-12-04T07:49:17;100250.97;;;-2.22;100.00
163;BME280;3946;48.958;8.284;2023-12-04T07:52:03;100242.75;;;-2.39;100.00
163;BME280;3946;48.958;8.284;2023-12-04T07:54:49;100231.94;;;-2.52;100.00
163;BME280;3946;48.958;8.284;2023-12-04T07:57:35;100250.31;;;-2.36;100.00
163;BME280;3946;48.958;8.284;2023-12-04T08:00:21;100248.63;;;-2.34;100.00
163;BME280;3946;48.958;8.284;2023-12-04T08:03:07;100239.34;;;-2.38;100.00
163;BME280;3946;48.958;8.284;2023-12-04T08:05:52;100248.59;;;-2.32;100.00
163;BME280;3946;48.958;8.284;2023-12-04T08:08:37;100244.16;;;-2.18;100.00
163;BME280;3946;48.958;8.284;2023-12-04T08:11:23;100236.25;;;-1.97;100.00
163;BME280;3946;48.958;8.284;2023-12-04T08:14:09;100240.53;;;-1.99;100.00
163;BME280;3946;48.958;8.284;2023-12-04T08:16:55;100233.63;;;-1.92;100.00
163;BME280;3946;48.958;8.284;2023-12-04T08:19:40;100242.81;;;-1.82;100.00
163;BME280;3946;48.958;8.284;2023-12-04T08:22:26;100228.31;;;-1.77;100.00
163;BME280;3946;48.958;8.284;2023-12-04T08:25:11;100233.50;;;-1.82;100.00
163;BME280;3946;48.958;8.284;2023-12-04T08:27:58;100227.47;;;-1.78;100.00
163;BME280;3946;48.958;8.284;2023-12-04T08:30:45;100238.53;;;-1.79;100.00
163;BME280;3946;48.958;8.284;2023-12-04T08:33:30;100235.06;;;-1.74;100.00
163;BME280;3946;48.958;8.284;2023-12-04T08:36:15;100221.41;;;-1.67;100.00
163;BME280;3946;48.958;8.284;2023-12-04T08:39:00;100203.41;;;-1.54;100.00
163;BME280;3946;48.958;8.284;2023-12-04T08:41:46;100206.69;;;-1.47;100.00
163;BME280;3946;48.958;8.284;2023-12-04T08:44:31;100208.75;;;-1.20;100.00
163;BME280;3946;48.958;8.284;2023-12-04T08:47:20;100198.47;;;-1.14;100.00
163;BME280;3946;48.958;8.284;2023-12-04T08:50:06;100203.41;;;-1.08;100.00
163;BME280;3946;48.958;8.284;2023-12-04T08:52:52;100205.66;;;-0.92;100.00
163;BME280;3946;48.958;8.284;2023-12-04T08:55:37;100208.69;;;-1.17;100.00
163;BME280;3946;48.958;8.284;2023-12-04T08:58:23;100213.06;;;-1.26;100.00
163;BME280;3946;48.958;8.284;2023-12-04T09:01:08;100210.28;;;-1.13;100.00
163;BME280;3946;48.958;8.284;2023-12-04T09:03:56;100209.78;;;-0.85;100.00
163;BME280;3946;48.958;8.284;2023-12-04T09:06:41;100208.47;;;-0.63;100.00
163;BME280;3946;48.958;8.284;2023-12-04T09:09:26;100211.13;;;-0.67;100.00
163;BME280;3946;48.958;8.284;2023-12-04T09:12:12;100228.16;;;-0.71;100.00
163;BME280;3946;48.958;8.284;2023-12-04T09:14:57;100244.72;;;-0.96;100.00
163;BME280;3946;48.958;8.284;2023-12-04T09:17:42;100258.94;;;-0.85;100.00
163;BME280;3946;48.958;8.284;2023-12-04T09:20:29;100260.41;;;-1.19;100.00
163;BME280;3946;48.958;8.284;2023-12-04T09:23:14;100242.91;;;-0.90;100.00
163;BME280;3946;48.958;8.284;2023-12-04T09:26:00;100228.31;;;-0.80;100.00
163;BME280;3946;48.958;8.284;2023-12-04T09:28:45;100231.75;;;-0.81;100.00
163;BME280;3946;48.958;8.284;2023-12-04T09:31:30;100229.84;;;-0.72;100.00
163;BME280;3946;48.958;8.284;2023-12-04T09:34:16;100240.31;;;-0.85;100.00
163;BME280;3946;48.958;8.284;2023-12-04T09:37:03;100238.78;;;-0.95;100.00
163;BME280;3946;48.958;8.284;2023-12-04T09:39:48;100246.31;;;-0.89;100.00
163;BME280;3946;48.958;8.284;2023-12-04T09:42:34;100235.19;;;-0.84;100.00
163;BME280;3946;48.958;8.284;2023-12-04T09:45:20;100246.66;;;-0.64;100.00
163;BME280;3946;48.958;8.284;2023-12-04T09:48:06;100248.31;;;-0.62;100.00
163;BME280;3946;48.958;8.284;2023-12-04T09:50:53;100244.03;;;-0.60;100.00
163;BME280;3946;48.958;8.284;2023-12-04T09:53:40;100238.69;;;-0.48;100.00
163;BME280;3946;48.958;8.284;2023-12-04T09:56:26;100238.69;;;-0.48;100.00
163;BME280;3946;48.958;8.284;2023-12-04T09:59:13;100223.88;;;-0.29;100.00
163;BME280;3946;48.958;8.284;2023-12-04T10:01:59;100215.34;;;-0.26;100.00
163;BME280;3946;48.958;8.284;2023-12-04T10:04:45;100205.69;;;-0.12;100.00
163;BME280;3946;48.958;8.284;2023-12-04T10:07:30;100192.53;;;-0.31;100.00
163;BME280;3946;48.958;8.284;2023-12-04T10:10:17;100206.22;;;-0.37;100.00
163;BME280;3946;48.958;8.284;2023-12-04T10:13:03;100198.44;;;0.08;100.00
163;BME280;3946;48.958;8.284;2023-12-04T10:15:49;100198.66;;;-0.01;100.00
163;BME280;3946;48.958;8.284;2023-12-04T10:18:35;100185.69;;;-0.29;100.00
163;BME280;3946;48.958;8.284;2023-12-04T10:21:20;100180.81;;;-0.38;100.00
163;BME280;3946;48.958;8.284;2023-12-04T10:24:05;100168.44;;;-0.53;100.00
163;BME280;3946;48.958;8.284;2023-12-04T10:26:52;100167.50;;;-0.49;100.00
163;BME280;3946;48.958;8.284;2023-12-04T10:29:42;100151.19;;;-0.41;100.00
163;BME280;3946;48.958;8.284;2023-12-04T10:32:28;100140.13;;;-0.03;100.00
163;BME280;3946;48.958;8.284;2023-12-04T10:35:13;100119.50;;;-0.29;100.00
163;BME280;3946;48.958;8.284;2023-12-04T10:37:59;100116.22;;;-0.32;100.00
163;BME280;3946;48.958;8.284;2023-12-04T10:40:44;100118.44;;;-0.19;100.00
163;BME280;3946;48.958;8.284;2023-12-04T10:43:31;100116.00;;;-0.23;100.00
163;BME280;3946;48.958;8.284;2023-12-04T10:46:17;100120.09;;;-0.16;100.00
163;BME280;3946;48.958;8.284;2023-12-04T10:49:04;100122.72;;;-0.21;100.00
163;BME280;3946;48.958;8.284;2023-12-04T10:51:49;100114.50;;;0.04;100.00
163;BME280;3946;48.958;8.284;2023-12-04T10:54:36;100113.16;;;-0.11;100.00
163;BME280;3946;48.958;8.284;2023-12-04T10:57:25;100114.09;;;-0.15;100.00
163;BME280;3946;48.958;8.284;2023-12-04T11:00:14;100121.19;;;0.08;100.00
163;BME280;3946;48.958;8.284;2023-12-04T11:03:04;100119.63;;;0.02;100.00
163;BME280;3946;48.958;8.284;2023-12-04T11:05:55;100110.34;;;-0.34;100.00
163;BME280;3946;48.958;8.284;2023-12-04T11:08:42;100097.50;;;0.04;100.00
163;BME280;3946;48.958;8.284;2023-12-04T11:11:30;100089.69;;;0.12;100.00
163;BME280;3946;48.958;8.284;2023-12-04T11:14:22;100071.22;;;0.02;100.00
163;BME280;3946;48.958;8.284;2023-12-04T11:17:10;100044.38;;;-0.10;100.00
163;BME280;3946;48.958;8.284;2023-12-04T11:19:59;100054.00;;;0.13;100.00
163;BME280;3946;48.958;8.284;2023-12-04T11:22:47;100059.16;;;0.10;100.00
163;BME280;3946;48.958;8.284;2023-12-04T11:25:34;100052.88;;;0.23;100.00
163;BME280;3946;48.958;8.284;2023-12-04T11:28:20;100041.38;;;0.09;100.00
163;BME280;3946;48.958;8.284;2023-12-04T11:31:06;100036.31;;;0.07;100.00
163;BME280;3946;48.958;8.284;2023-12-04T11:34:01;100031.16;;;0.10;100.00
163;BME280;3946;48.958;8.284;2023-12-04T11:36:46;100029.03;;;0.26;100.00
163;BME280;3946;48.958;8.284;2023-12-04T11:39:33;100020.81;;;0.16;100.00
163;BME280;3946;48.958;8.284;2023-12-04T11:42:23;100025.34;;;0.36;100.00
163;BME280;3946;48.958;8.284;2023-12-04T11:45:09;100015.78;;;0.44;100.00
163;BME280;3946;48.958;8.284;2023-12-04T11:47:55;100007.94;;;0.50;100.00
163;BME280;3946;48.958;8.284;2023-12-04T11:50:43;100010.41;;;0.53;100.00
163;BME280;3946;48.958;8.284;2023-12-04T11:53:29;99990.09;;;0.50;100.00
163;BME280;3946;48.958;8.284;2023-12-04T11:56:15;100001.75;;;0.29;100.00
163;BME280;3946;48.958;8.284;2023-12-04T11:59:03;100003.44;;;0.30;100.00
163;BME280;3946;48.958;8.284;2023-12-04T12:01:50;99984.50;;;0.39;100.00
163;BME280;3946;48.958;8.284;2023-12-04T12:04:36;99974.81;;;0.50;100.00
163;BME280;3946;48.958;8.284;2023-12-04T12:07:23;99962.16;;;0.49;100.00
163;BME280;3946;48.958;8.284;2023-12-04T12:10:09;99963.72;;;0.23;100.00
163;BME280;3946;48.958;8.284;2023-12-04T12:12:55;99953.56;;;0.22;100.00
163;BME280;3946;48.958;8.284;2023-12-04T12:15:40;99937.09;;;0.33;100.00
163;BME280;3946;48.958;8.284;2023-12-04T12:18:26;99940.25;;;0.42;100.00
163;BME280;3946;48.958;8.284;2023-12-04T12:21:11;99938.63;;;0.39;100.00
163;BME280;3946;48.958;8.284;2023-12-04T12:23:58;99922.47;;;0.40;100.00
163;BME280;3946;48.958;8.284;2023-12-04T12:26:43;99927.66;;;0.37;100.00
163;BME280;3946;48.958;8.284;2023-12-04T12:29:29;99902.25;;;0.34;100.00
163;BME280;3946;48.958;8.284;2023-12-04T12:32:14;99906.34;;;0.40;100.00
163;BME280;3946;48.958;8.284;2023-12-04T12:35:02;99900.19;;;0.47;100.00
163;BME280;3946;48.958;8.284;2023-12-04T12:37:47;99895.56;;;0.59;100.00
163;BME280;3946;48.958;8.284;2023-12-04T12:40:34;99888.63;;;0.64;100.00
163;BME280;3946;48.958;8.284;2023-12-04T12:43:21;99889.06;;;0.49;100.00
163;BME280;3946;48.958;8.284;2023-12-04T12:46:07;99869.09;;;0.63;100.00
163;BME280;3946;48.958;8.284;2023-12-04T12:48:53;99874.16;;;0.65;100.00
163;BME280;3946;48.958;8.284;2023-12-04T12:51:40;99862.53;;;0.56;100.00
163;BME280;3946;48.958;8.284;2023-12-04T12:54:26;99861.41;;;0.37;100.00
163;BME280;3946;48.958;8.284;2023-12-04T12:57:13;99858.53;;;0.20;100.00
163;BME280;3946;48.958;8.284;2023-12-04T12:59:58;99849.47;;;0.39;100.00
163;BME280;3946;48.958;8.284;2023-12-04T13:02:44;99844.72;;;0.55;100.00
163;BME280;3946;48.958;8.284;2023-12-04T13:05:30;99847.88;;;0.63;100.00
163;BME280;3946;48.958;8.284;2023-12-04T13:08:15;99839.66;;;0.53;100.00
163;BME280;3946;48.958;8.284;2023-12-04T13:11:00;99834.44;;;0.58;100.00
163;BME280;3946;48.958;8.284;2023-12-04T13:13:47;99823.47;;;0.56;100.00
163;BME280;3946;48.958;8.284;2023-12-04T13:16:32;99825.97;;;0.57;100.00
163;BME280;3946;48.958;8.284;2023-12-04T13:19:18;99820.78;;;0.60;100.00
163;BME280;3946;48.958;8.284;2023-12-04T13:22:03;99816.94;;;0.74;100.00
163;BME280;3946;48.958;8.284;2023-12-04T13:24:49;99801.88;;;0.66;100.00
163;BME280;3946;48.958;8.284;2023-12-04T13:27:34;99802.78;;;0.65;100.00
163;BME280;3946;48.958;8.284;2023-12-04T13:30:21;99785.72;;;0.67;100.00
163;BME280;3946;48.958;8.284;2023-12-04T13:33:06;99783.09;;;0.68;100.00
163;BME280;3946;48.958;8.284;2023-12-04T13:35:52;99780.50;;;0.70;100.00
163;BME280;3946;48.958;8.284;2023-12-04T13:38:37;99787.53;;;0.63;100.00
163;BME280;3946;48.958;8.284;2023-12-04T13:41:22;99764.59;;;0.63;100.00
163;BME280;3946;48.958;8.284;2023-12-04T13:44:25;99771.09;;;0.72;100.00
163;BME280;3946;48.958;8.284;2023-12-04T13:47:12;99760.63;;;0.55;100.00
163;BME280;3946;48.958;8.284;2023-12-04T13:49:58;99762.88;;;0.64;100.00
163;BME280;3946;48.958;8.284;2023-12-04T13:52:44;99762.97;;;0.61;100.00
163;BME280;3946;48.958;8.284;2023-12-04T13:55:29;99756.69;;;0.71;100.00
163;BME280;3946;48.958;8.284;2023-12-04T13:58:31;99751.59;;;0.71;100.00
163;BME280;3946;48.958;8.284;2023-12-04T14:01:25;99743.34;;;0.64;100.00
163;BME280;3946;48.958;8.284;2023-12-04T14:04:14;99726.31;;;0.65;100.00
163;BME280;3946;48.958;8.284;2023-12-04T14:06:59;99728.50;;;0.76;100.00
163;BME280;3946;48.958;8.284;2023-12-04T14:09:45;99706.44;;;0.75;100.00
163;BME280;3946;48.958;8.284;2023-12-04T14:12:31;99711.59;;;0.73;100.00
163;BME280;3946;48.958;8.284;2023-12-04T14:15:16;99701.53;;;0.68;100.00
163;BME280;3946;48.958;8.284;2023-12-04T14:18:01;99704.78;;;0.74;100.00
163;BME280;3946;48.958;8.284;2023-12-04T14:20:48;99698.78;;;0.75;100.00
163;BME280;3946;48.958;8.284;2023-12-04T14:23:34;99680.16;;;0.73;100.00
163;BME280;3946;48.958;8.284;2023-12-04T14:26:19;99686.44;;;0.87;100.00
163;BME280;3946;48.958;8.284;2023-12-04T14:29:04;99664.78;;;0.99;100.00
163;BME280;3946;48.958;8.284;2023-12-04T14:31:51;99672.16;;;1.07;100.00
163;BME280;3946;48.958;8.284;2023-12-04T14:34:37;99668.66;;;0.86;100.00
163;BME280;3946;48.958;8.284;2023-12-04T14:37:23;99668.16;;;0.99;100.00
163;BME280;3946;48.958;8.284;2023-12-04T14:40:11;99664.22;;;0.91;100.00
163;BME280;3946;48.958;8.284;2023-12-04T14:42:57;99663.72;;;1.04;100.00
163;BME280;3946;48.958;8.284;2023-12-04T14:45:42;99664.28;;;0.89;100.00
163;BME280;3946;48.958;8.284;2023-12-04T14:48:28;99652.72;;;0.81;100.00
163;BME280;3946;48.958;8.284;2023-12-04T14:51:14;99649.25;;;0.82;100.00
163;BME280;3946;48.958;8.284;2023-12-04T14:54:01;99646.19;;;0.72;100.00
163;BME280;3946;48.958;8.284;2023-12-04T14:56:58;99632.84;;;0.89;100.00